LIBR

Details ICAO LIBR (BDS)
Name BRINDISI/Casale
Region Italy
Timezone Europe/Rome (UTC+2.0)
Plans Departing 228
Arriving 229
Stats Elevation 47 ft / 14 m (AMSL)
Location 40.660824° 17.942673°
Runways 2
Magnetic Variation 3.934° E
Sunrise 2018-05-20 03:28:34 UTC / 2018-05-20 05:28:34 Local
Sunset 2018-05-20 18:03:47 UTC / 2018-05-20 20:03:47 Local
Advertisement - Login to hide

Runways

ID Width Length Bearing (true) Bearing (mag) Surface Threshold Offset Overrun Length
13 148 ft / 45 m 9,398 ft / 2,865 m 136.56° 132.63° Asphalt 0 ft / 0 m 689 ft / 210 m
23 148 ft / 45 m 6,129 ft / 1,868 m 232.52° 228.59° Asphalt 230 ft / 70 m 0 ft / 0 m
31 148 ft / 45 m 9,398 ft / 2,865 m 316.58° 312.65° Asphalt 0 ft / 0 m 387 ft / 118 m
5 148 ft / 45 m 6,129 ft / 1,868 m 52.51° 48.58° Asphalt 0 ft / 0 m 0 ft / 0 m

Approach Navaids

Runway Type Ident Frequency Range Bearing (true) Bearing (mag) Slope Elevation
31 Localiser IBN 109.50 MHz 18 nm / 33 km 316.88° 312.95° - 48 ft / 15 m (AMSL)
31 Glidescope IBN 109.50 MHz 10 nm / 19 km 316.57° 312.64° 2.50° 94 ft / 29 m (AMSL)

Map

Weather


0- 5 10 15 20 25 30 35+ Temperature / ° C

Clouds and Precipitation
Forecast for 2018-05-20 18:00 UTC. Updated an hour ago

Ground ~20,000 ft ~40,000 ft Winds

METAR

LIBR 201820Z 32005KT CAVOK 20/18 Q1012

TAF

TAF LIBR 201700Z 2018/2118 32010KT CAVOK= TAF LIEE 201700Z 2018/2118 VRB05KT 9999 SCT030 TEMPO 2100/2109 4000 SHRA BECMG 2110/2112 16013KT

Frequencies

Tower 118.10 MHz BRINDISI TWR
Approach 118.40 MHz BRINDISI APP
Approach 122.10 MHz BRINDISI APP
Tower 122.10 MHz BRINDISI TWR
Approach 121.00 MHz BRINDISI APP
Warning: Do not use this data for real-world aviation or navigation. No guarantee of current accuracy is given.